Time;durP1;ratioP1;P1;durP2;ratioP2;P2;SDS_P1;SDS_P2;PMS_P1;PMS_P2;Temp;Humidity;BMP_temperature;BMP_pressure;BME280_temperature;BME280_humidity;BME280_pressure;Samples;Min_cycle;Max_cycle;Signal;HPM_P1;HPM_P2
2022/08/15 00:00:50;;;;;;;6.67;6.10;;;;;;;18.51;100.00;95390.03;5050203;27;101845;-61
2022/08/15 00:03:23;;;;;;;6.23;5.80;;;;;;;18.27;100.00;95394.38;5050225;27;105530;-61
2022/08/15 00:05:50;;;;;;;6.33;5.83;;;;;;;17.95;100.00;95390.38;5049518;27;104917;-61
2022/08/15 00:08:17;;;;;;;6.60;6.10;;;;;;;17.81;100.00;95389.75;5051251;27;101707;-61
2022/08/15 00:10:45;;;;;;;6.60;6.07;;;;;;;18.01;100.00;95386.38;5054115;27;102804;-61
2022/08/15 00:13:15;;;;;;;7.00;6.50;;;;;;;17.98;100.00;95378.94;5051302;27;101809;-61
2022/08/15 00:15:43;;;;;;;6.27;5.67;;;;;;;17.96;100.00;95391.13;5051276;27;103807;-61
2022/08/15 00:18:12;;;;;;;7.13;6.63;;;;;;;17.98;100.00;95387.00;5050779;27;102600;-61
2022/08/15 00:20:39;;;;;;;6.20;5.70;;;;;;;18.08;100.00;95385.88;5051011;27;101907;-61
2022/08/15 00:23:11;;;;;;;6.30;5.80;;;;;;;18.11;100.00;95385.25;5051054;27;102438;-61
2022/08/15 00:25:39;;;;;;;6.13;5.73;;;;;;;18.18;100.00;95389.03;5050715;27;102781;-61
2022/08/15 00:28:08;;;;;;;6.10;5.60;;;;;;;18.17;100.00;95392.03;5051134;27;101824;-61
2022/08/15 00:30:36;;;;;;;6.00;5.60;;;;;;;18.19;100.00;95389.78;5049602;27;105162;-62
2022/08/15 00:33:04;;;;;;;6.67;6.03;;;;;;;18.18;100.00;95385.53;5052334;27;105449;-61
2022/08/15 00:35:40;;;;;;;6.37;5.87;;;;;;;18.14;100.00;95384.63;5049524;27;103927;-61
2022/08/15 00:38:09;;;;;;;6.03;5.63;;;;;;;18.20;100.00;95386.03;5050415;27;102584;-62
2022/08/15 00:43:18;;;;;;;6.20;5.70;;;;;;;18.03;100.00;95389.53;5050579;27;102396;-61
2022/08/15 00:45:45;;;;;;;6.57;6.07;;;;;;;18.05;100.00;95389.22;5048605;27;105889;-61
2022/08/15 00:50:58;;;;;;;6.47;5.97;;;;;;;17.83;100.00;95394.81;5049413;27;105496;-61
2022/08/15 00:53:27;;;;;;;6.37;5.87;;;;;;;17.93;100.00;95389.09;5048505;27;105371;-61
2022/08/15 00:55:55;;;;;;;6.60;6.10;;;;;;;18.03;100.00;95391.47;5035737;27;102289;-61
2022/08/15 00:58:23;;;;;;;6.70;6.20;;;;;;;18.07;100.00;95392.38;5050173;27;102640;-61
2022/08/15 01:00:50;;;;;;;6.93;6.23;;;;;;;18.06;100.00;95388.91;5049286;27;101927;-61
2022/08/15 01:03:20;;;;;;;7.20;6.50;;;;;;;18.12;100.00;95389.50;5049276;27;105373;-61
2022/08/15 01:05:51;;;;;;;7.30;6.70;;;;;;;18.08;100.00;95385.88;5049970;27;102629;-61
2022/08/15 01:08:23;;;;;;;7.17;6.47;;;;;;;18.13;100.00;95389.19;5050730;27;102115;-61
2022/08/15 01:10:52;;;;;;;7.10;6.50;;;;;;;18.11;100.00;95394.13;5049180;27;105536;-61
2022/08/15 01:13:19;;;;;;;8.97;6.17;;;;;;;18.06;100.00;95394.28;5048373;27;105821;-61
2022/08/15 01:15:46;;;;;;;6.70;6.10;;;;;;;18.06;100.00;95394.28;5048883;27;101825;-61
2022/08/15 01:18:14;;;;;;;6.70;6.10;;;;;;;18.07;100.00;95389.69;5051771;27;103591;-61
2022/08/15 01:20:43;;;;;;;7.40;6.70;;;;;;;18.12;100.00;95390.31;5048905;27;102017;-61
2022/08/15 01:23:16;;;;;;;7.23;6.63;;;;;;;18.10;100.00;95389.06;5048815;27;105722;-61
2022/08/15 01:25:49;;;;;;;6.47;5.87;;;;;;;18.08;100.00;95385.88;5048109;27;105709;-61
2022/08/15 01:28:20;;;;;;;6.73;6.23;;;;;;;18.10;100.00;95389.06;5048868;27;101875;-61
2022/08/15 01:30:51;;;;;;;6.47;5.97;;;;;;;18.06;100.00;95394.28;5048763;27;105708;-61
2022/08/15 01:33:19;;;;;;;7.00;6.30;;;;;;;18.11;100.00;95396.00;5048098;27;105434;-61
2022/08/15 01:35:48;;;;;;;6.03;5.53;;;;;;;18.05;100.00;95391.91;5048602;27;101966;-61
2022/08/15 01:38:23;;;;;;;6.70;6.10;;;;;;;18.00;100.00;95398.25;5049953;27;102296;-61
2022/08/15 01:41:00;;;;;;;6.70;6.20;;;;;;;17.97;100.00;95401.59;5051502;27;104148;-61
2022/08/15 01:43:32;;;;;;;6.07;5.57;;;;;;;17.93;100.00;95394.47;5051187;27;102481;-61
2022/08/15 01:46:03;;;;;;;6.23;5.73;;;;;;;17.95;100.00;95405.69;5051621;27;103987;-62
2022/08/15 01:48:36;;;;;;;6.83;6.23;;;;;;;18.02;100.00;95403.31;5052104;27;101838;-61
2022/08/15 01:51:07;;;;;;;6.77;6.17;;;;;;;18.03;100.00;95404.91;5052304;27;105122;-61
2022/08/15 01:53:43;;;;;;;6.07;5.57;;;;;;;17.97;100.00;95400.78;5051322;27;105066;-61
2022/08/15 01:56:19;;;;;;;6.33;5.73;;;;;;;18.00;100.00;95408.22;5052113;27;101913;-61
2022/08/15 01:58:46;;;;;;;6.53;6.03;;;;;;;17.99;100.00;95410.13;5052148;27;105044;-61
2022/08/15 02:01:17;;;;;;;6.70;6.20;;;;;;;17.78;100.00;95411.13;5054906;27;105431;-61
2022/08/15 02:03:46;;;;;;;6.70;6.20;;;;;;;17.87;100.00;95412.69;5053281;27;102345;-61
2022/08/15 02:06:17;;;;;;;6.57;6.07;;;;;;;17.96;100.00;95402.69;5051370;27;105500;-61
2022/08/15 02:08:46;;;;;;;6.27;5.87;;;;;;;17.91;100.00;95410.94;5051903;27;101947;-61
2022/08/15 02:11:18;;;;;;;7.10;6.40;;;;;;;17.93;100.00;95405.25;5051991;27;105092;-61
2022/08/15 02:13:47;;;;;;;6.17;5.67;;;;;;;18.02;100.00;95411.38;5051330;27;106300;-61
2022/08/15 02:16:15;;;;;;;6.77;6.27;;;;;;;17.99;100.00;95402.03;5051881;27;101829;-61
2022/08/15 02:18:42;;;;;;;6.70;6.20;;;;;;;18.05;100.00;95405.38;5052943;27;102320;-61
2022/08/15 02:21:10;;;;;;;6.60;6.00;;;;;;;18.00;100.00;95409.03;5050941;27;105146;-61
2022/08/15 02:23:38;;;;;;;6.23;5.73;;;;;;;18.04;100.00;95411.88;5055226;27;102015;-61
2022/08/15 02:26:07;;;;;;;6.60;6.00;;;;;;;17.85;100.00;95406.03;5051096;27;103799;-61
2022/08/15 02:28:39;;;;;;;6.63;6.10;;;;;;;17.87;100.00;95407.28;5053067;27;101866;-61
2022/08/15 02:31:11;;;;;;;6.63;6.13;;;;;;;17.84;100.00;95407.16;5035338;27;104873;-61
2022/08/15 02:33:39;;;;;;;9.37;5.77;;;;;;;17.91;100.00;95407.44;5050997;27;104984;-61
2022/08/15 02:36:06;;;;;;;6.47;5.87;;;;;;;17.89;100.00;95404.28;5051380;27;102016;-61
2022/08/15 02:38:34;;;;;;;6.00;5.40;;;;;;;17.94;100.00;95412.19;5051288;27;103982;-61
2022/08/15 02:41:02;;;;;;;5.77;5.37;;;;;;;17.93;100.00;95410.63;5050236;27;104320;-61
2022/08/15 02:43:29;;;;;;;6.00;5.60;;;;;;;17.91;100.00;95412.81;5051376;27;101907;-61
2022/08/15 02:46:00;;;;;;;6.00;5.50;;;;;;;17.91;100.00;95424.38;5054303;27;105273;-61
2022/08/15 02:48:28;;;;;;;5.97;5.47;;;;;;;17.98;100.00;95418.53;5051269;27;101861;-61
2022/08/15 02:50:56;;;;;;;5.73;5.20;;;;;;;18.04;100.00;95417.25;5050950;27;105394;-61
2022/08/15 02:53:25;;;;;;;5.70;5.20;;;;;;;17.96;100.00;95415.34;5050516;27;105407;-61
2022/08/15 02:55:52;;;;;;;5.30;4.90;;;;;;;18.01;100.00;95412.50;5049886;27;101862;-61
2022/08/15 02:58:19;;;;;;;6.07;5.57;;;;;;;17.98;100.00;95413.16;5051256;27;105555;-61
2022/08/15 03:00:47;;;;;;;5.77;5.37;;;;;;;18.09;100.00;95417.06;5050123;27;105068;-61
2022/08/15 03:03:17;;;;;;;5.73;5.00;;;;;;;18.11;100.00;95412.16;5034295;27;102050;-61
2022/08/15 03:05:50;;;;;;;5.40;5.03;;;;;;;18.03;100.00;95407.59;5051087;27;104500;-61
2022/08/15 03:08:17;;;;;;;5.63;5.13;;;;;;;18.11;100.00;95406.78;5053909;27;105804;-61
2022/08/15 03:10:46;;;;;;;6.63;5.20;;;;;;;18.11;100.00;95412.16;5051001;27;105219;-61
2022/08/15 03:13:18;;;;;;;5.30;4.90;;;;;;;17.96;100.00;95416.16;5050038;27;104974;-61
2022/08/15 03:15:48;;;;;;;5.53;5.07;;;;;;;18.00;100.00;95416.28;5050989;27;101908;-61
2022/08/15 03:18:17;;;;;;;5.30;4.90;;;;;;;18.03;100.00;95419.13;5050893;27;104586;-61
2022/08/15 03:20:46;;;;;;;6.03;5.50;;;;;;;17.95;100.00;95419.94;5049971;27;105301;-61
2022/08/15 03:23:17;;;;;;;5.97;5.50;;;;;;;17.97;100.00;95422.31;5050660;27;102110;-61
2022/08/15 03:25:49;;;;;;;5.93;5.47;;;;;;;18.03;100.00;95426.44;5050763;27;104913;-61
2022/08/15 03:28:19;;;;;;;6.10;5.50;;;;;;;18.09;100.00;95425.16;5050161;27;105160;-61
2022/08/15 03:30:47;;;;;;;5.73;5.33;;;;;;;18.08;100.00;95418.97;5054185;27;101809;-61
2022/08/15 03:33:14;;;;;;;5.70;5.30;;;;;;;17.99;100.00;95428.16;5049642;27;105850;-61
2022/08/15 03:35:45;;;;;;;6.37;5.73;;;;;;;17.87;100.00;95438.78;5050391;27;101854;-61
2022/08/15 03:38:18;;;;;;;6.23;5.70;;;;;;;17.91;100.00;95445.09;5050584;27;105676;-61
2022/08/15 03:40:51;;;;;;;5.70;5.20;;;;;;;17.91;100.00;95435.16;5049667;27;103918;-61
2022/08/15 03:43:22;;;;;;;5.70;5.30;;;;;;;17.90;100.00;95432.75;5050469;27;102040;-61
2022/08/15 03:45:54;;;;;;;5.53;5.17;;;;;;;17.94;100.00;95428.34;5052168;27;102786;-61
2022/08/15 03:48:30;;;;;;;6.07;5.57;;;;;;;17.89;100.00;95436.56;5049741;27;105231;-61
2022/08/15 03:51:01;;;;;;;5.77;5.27;;;;;;;17.92;100.00;95433.25;5050181;27;101849;-61
2022/08/15 03:53:43;;;;;;;6.03;5.53;;;;;;;17.94;100.00;95433.72;5053123;27;105358;-61
2022/08/15 03:56:14;;;;;;;6.70;6.10;;;;;;;17.92;100.00;95434.03;5050261;27;101896;-61
2022/08/15 03:58:42;;;;;;;5.80;5.30;;;;;;;17.99;100.00;95441.63;5050254;27;105109;-61
2022/08/15 04:01:15;;;;;;;5.67;5.20;;;;;;;18.09;100.00;95442.06;5049582;27;105552;-62
2022/08/15 04:03:44;;;;;;;5.80;5.30;;;;;;;18.14;100.00;95444.59;5049981;27;101890;-61
2022/08/15 04:06:16;;;;;;;5.70;5.30;;;;;;;18.15;100.00;95451.53;5049712;27;105251;-61
2022/08/15 04:08:47;;;;;;;5.87;5.37;;;;;;;18.20;100.00;95453.28;5049631;27;104037;-61
2022/08/15 04:11:16;;;;;;;5.93;5.33;;;;;;;18.23;100.00;95453.44;5050011;27;101979;-61
2022/08/15 04:13:44;;;;;;;5.57;5.17;;;;;;;18.24;100.00;95456.91;5054120;27;102293;-61
2022/08/15 04:16:14;;;;;;;5.17;4.77;;;;;;;18.21;100.00;95454.88;5049819;27;102119;-61
2022/08/15 04:18:42;;;;;;;5.77;5.27;;;;;;;18.23;100.00;95461.50;5049874;27;105217;-61
2022/08/15 04:21:12;;;;;;;5.50;5.00;;;;;;;18.24;100.00;95456.91;5049112;27;105893;-61
2022/08/15 04:23:43;;;;;;;6.03;5.50;;;;;;;18.24;100.00;95460.41;5049860;27;101834;-61
2022/08/15 04:26:11;;;;;;;5.57;5.10;;;;;;;18.25;100.00;95461.19;5049724;27;105172;-61
2022/08/15 04:28:38;;;;;;;5.90;5.40;;;;;;;18.17;100.00;95467.38;5049343;27;105490;-61
2022/08/15 04:31:09;;;;;;;5.43;5.07;;;;;;;18.18;100.00;95471.66;5049577;27;101866;-61
2022/08/15 04:33:37;;;;;;;5.20;4.80;;;;;;;18.25;100.00;95472.75;5049601;27;104659;-61
2022/08/15 04:36:09;;;;;;;5.73;5.10;;;;;;;18.31;100.00;95474.16;5052440;27;105571;-61
2022/08/15 04:38:39;;;;;;;5.30;4.90;;;;;;;18.31;100.00;95479.53;5049225;27;104863;-61
2022/08/15 04:41:10;;;;;;;5.07;4.77;;;;;;;18.32;100.00;95478.44;5048152;27;104580;-61
2022/08/15 04:43:40;;;;;;;5.03;4.50;;;;;;;18.40;100.00;95483.03;5050918;27;102123;-61
2022/08/15 04:46:11;;;;;;;5.03;4.67;;;;;;;18.47;100.00;95486.00;5050396;27;102067;-61
2022/08/15 04:48:41;;;;;;;4.83;4.40;;;;;;;18.49;100.00;95483.81;5048648;27;104987;-61
2022/08/15 04:51:09;;;;;;;4.97;4.53;;;;;;;18.53;100.00;95492.03;5049368;27;101937;-61
2022/08/15 04:53:39;;;;;;;4.37;4.07;;;;;;;18.60;100.00;95489.63;5049226;27;105213;-61
2022/08/15 04:56:08;;;;;;;4.53;4.13;;;;;;;18.68;100.00;95491.47;5048843;27;105200;-61
2022/08/15 04:58:39;;;;;;;3.80;3.50;;;;;;;18.75;100.00;95489.09;5052927;27;101942;-61
2022/08/15 05:01:13;;;;;;;4.17;3.87;;;;;;;18.83;100.00;95491.75;5048501;27;104712;-61
2022/08/15 05:03:46;;;;;;;3.80;3.47;;;;;;;18.95;100.00;95491.84;5049101;27;102001;-62
2022/08/15 05:06:13;;;;;;;3.80;3.50;;;;;;;19.08;100.00;95490.06;5049149;27;105831;-61
2022/08/15 05:08:41;;;;;;;3.30;3.00;;;;;;;19.28;100.00;95494.72;5048654;27;105367;-61
2022/08/15 05:11:16;;;;;;;3.97;3.30;;;;;;;19.30;100.00;95498.66;5049157;27;102128;-61
2022/08/15 05:13:48;;;;;;;4.03;3.73;;;;;;;19.40;100.00;95500.22;5049107;27;104827;-61
2022/08/15 05:16:23;;;;;;;3.47;3.17;;;;;;;19.49;100.00;95492.84;5048323;27;105680;-61
2022/08/15 05:18:50;;;;;;;3.43;3.13;;;;;;;19.59;100.00;95489.75;5047884;27;101721;-61
2022/08/15 05:21:18;;;;;;;4.43;2.93;;;;;;;19.72;100.00;95488.72;5051706;27;105122;-62
2022/08/15 05:23:45;;;;;;;3.23;2.87;;;;;;;19.89;100.00;95488.59;5049022;27;101939;-61
2022/08/15 05:26:31;;;;;;;3.27;2.97;;;;;;;19.99;100.00;95491.66;5050484;27;105465;-61
2022/08/15 05:29:00;;;;;;;3.60;2.87;;;;;;;20.11;100.00;95485.56;5056141;27;105314;-61
2022/08/15 05:31:29;;;;;;;3.40;3.20;;;;;;;20.24;100.00;95484.47;5059617;27;101990;-61
2022/08/15 05:33:59;;;;;;;3.33;2.93;;;;;;;20.26;100.00;95485.72;5059568;27;104697;-61
2022/08/15 05:36:34;;;;;;;2.67;2.47;;;;;;;20.32;100.00;95491.72;5059104;27;105095;-61
2022/08/15 05:39:12;;;;;;;2.67;2.47;;;;;;;20.37;100.00;95483.38;5057484;27;101857;-62
2022/08/15 05:41:48;;;;;;;2.90;2.70;;;;;;;20.41;100.00;95493.19;5057063;27;104756;-61
2022/08/15 05:44:22;;;;;;;4.47;2.90;;;;;;;20.44;100.00;95497.16;5060230;27;105323;-62
2022/08/15 05:46:59;;;;;;;4.20;3.30;;;;;;;20.44;100.00;95492.50;5050144;27;105504;-62
2022/08/15 05:49:34;;;;;;;3.37;3.00;;;;;;;20.52;100.00;95496.25;5058760;27;105457;-61
2022/08/15 05:52:17;;;;;;;2.93;2.70;;;;;;;20.61;100.00;95494.25;5058907;27;102102;-61
2022/08/15 05:55:00;;;;;;;4.37;2.80;;;;;;;20.67;100.00;95491.00;5059322;27;104884;-61
2022/08/15 05:57:34;;;;;;;2.97;2.70;;;;;;;20.75;100.00;95500.13;5058488;27;103969;-61
2022/08/15 06:00:10;;;;;;;4.90;2.90;;;;;;;20.83;100.00;95499.25;5057757;27;101910;-61
2022/08/15 06:02:49;;;;;;;2.90;2.60;;;;;;;20.90;100.00;95507.59;5059216;27;105110;-61
2022/08/15 06:05:21;;;;;;;3.77;2.87;;;;;;;20.96;100.00;95500.84;5058232;27;105476;-61
2022/08/15 06:07:52;;;;;;;2.93;2.63;;;;;;;20.98;100.00;95504.81;5062259;27;102160;-61
2022/08/15 06:10:26;;;;;;;4.93;2.73;;;;;;;21.08;100.00;95509.00;5058326;27;105185;-61
2022/08/15 06:12:59;;;;;;;3.33;2.53;;;;;;;21.01;100.00;95503.34;5060638;27;102304;-61
2022/08/15 06:15:35;;;;;;;4.20;3.00;;;;;;;21.16;100.00;95502.69;5057224;27;105097;-61
2022/08/15 06:18:09;;;;;;;3.87;2.93;;;;;;;21.21;100.00;95505.16;5055960;27;104270;-61
2022/08/15 06:20:47;;;;;;;3.20;2.87;;;;;;;21.29;100.00;95512.34;5059703;27;101952;-62
2022/08/15 06:23:27;;;;;;;2.90;2.70;;;;;;;21.38;100.00;95510.34;5068654;27;103649;-61
2022/08/15 06:26:03;;;;;;;3.80;3.20;;;;;;;21.48;100.00;95520.69;5067789;27;105418;-62
2022/08/15 06:28:50;;;;;;;3.93;3.30;;;;;;;21.54;100.00;95522.03;5071931;27;101913;-61
2022/08/15 06:31:24;;;;;;;3.70;3.40;;;;;;;21.75;100.00;95523.50;5071407;27;106679;-62
2022/08/15 06:33:59;;;;;;;3.00;2.80;;;;;;;21.71;100.00;95529.94;5072148;27;101979;-62
2022/08/15 06:36:31;;;;;;;3.53;2.70;;;;;;;21.65;100.00;95531.28;5072155;27;105257;-62
2022/08/15 06:39:04;;;;;;;3.50;2.70;;;;;;;21.61;100.00;95531.16;5067485;27;105329;-62
2022/08/15 06:41:38;;;;;;;3.10;2.83;;;;;;;21.70;100.00;95531.84;5071660;27;101765;-62
2022/08/15 06:44:15;;;;;;;3.67;3.30;;;;;;;21.70;100.00;95536.47;5065653;27;104938;-62
2022/08/15 06:47:03;;;;;;;3.43;3.13;;;;;;;21.95;100.00;95532.56;5066928;27;104528;-62
2022/08/15 06:49:34;;;;;;;3.03;2.83;;;;;;;22.03;100.00;95535.19;5063028;27;103281;-62
2022/08/15 06:52:03;;;;;;;3.03;2.70;;;;;;;22.31;100.00;95535.19;5066436;27;105528;-62
2022/08/15 06:54:30;;;;;;;3.60;2.90;;;;;;;22.28;100.00;95525.06;5065334;27;103641;-62
2022/08/15 06:57:04;;;;;;;4.87;3.00;;;;;;;22.14;100.00;95530.06;5059866;27;105120;-62
2022/08/15 06:59:39;;;;;;;2.67;2.47;;;;;;;22.29;100.00;95532.03;5059127;27;105556;-62
2022/08/15 07:02:28;;;;;;;2.57;2.37;;;;;;;22.28;100.00;95539.38;5068135;27;103531;-62
2022/08/15 07:05:04;;;;;;;2.90;2.40;;;;;;;22.17;100.00;95535.56;5065309;27;107098;-62
2022/08/15 07:07:41;;;;;;;2.57;2.20;;;;;;;22.08;100.00;95536.84;5059117;27;105619;-62
2022/08/15 07:10:16;;;;;;;2.90;2.10;;;;;;;22.40;100.00;95530.41;5059615;27;102060;-62
2022/08/15 07:12:56;;;;;;;2.30;2.10;;;;;;;22.66;100.00;95538.91;5068275;27;105030;-62
2022/08/15 07:15:36;;;;;;;2.60;2.40;;;;;;;22.71;100.00;95533.22;5074066;27;105668;-62
2022/08/15 07:18:10;;;;;;;2.60;2.40;;;;;;;23.01;100.00;95531.69;5071423;27;104734;-62
2022/08/15 07:20:37;;;;;;;3.23;2.37;;;;;;;23.24;100.00;95521.81;5070274;27;105560;-62
2022/08/15 07:23:19;;;;;;;2.67;2.47;;;;;;;23.76;100.00;95523.06;5061993;27;102298;-62
2022/08/15 07:25:49;;;;;;;2.37;2.27;;;;;;;24.06;100.00;95529.56;5058735;27;105032;-62
2022/08/15 07:28:20;;;;;;;3.80;2.50;;;;;;;24.11;100.00;95536.66;5060275;27;105722;-62
2022/08/15 07:30:54;;;;;;;3.27;2.80;;;;;;;23.95;100.00;95528.56;5059721;27;101987;-62
2022/08/15 07:33:42;;;;;;;3.17;2.40;;;;;;;23.60;100.00;95521.53;5058931;27;104823;-62
2022/08/15 07:36:19;;;;;;;2.63;2.43;;;;;;;23.86;100.00;95527.94;5054434;27;105688;-62
2022/08/15 07:38:48;;;;;;;2.47;2.27;;;;;;;23.66;100.00;95526.31;5064638;27;102025;-62
2022/08/15 07:56:34;;;;;;;2.03;1.93;;;;;;;24.46;100.00;95529.22;5070318;27;101755;-62
2022/08/15 07:59:13;;;;;;;2.57;2.13;;;;;;;24.32;100.00;95537.09;5065489;27;105901;-62
2022/08/15 08:01:40;;;;;;;2.20;2.00;;;;;;;24.62;100.00;95535.41;5066344;27;101803;-62
2022/08/15 08:04:11;;;;;;;2.97;1.87;;;;;;;24.62;100.00;95530.72;5065957;27;105150;-62
2022/08/15 08:19:03;;;;;;;1.97;1.43;;;;;;;23.83;100.00;95546.88;5030856;27;101800;-62
2022/08/15 08:21:39;;;;;;;2.50;1.57;;;;;;;24.06;100.00;95545.06;5059206;27;105211;-62
2022/08/15 08:24:14;;;;;;;2.93;1.50;;;;;;;23.80;100.00;95544.84;5026190;28;101814;-62
2022/08/15 08:26:49;;;;;;;1.57;1.47;;;;;;;23.94;100.00;95547.91;5025623;28;105156;-62
2022/08/15 08:29:23;;;;;;;1.60;1.50;;;;;;;23.80;100.00;95547.56;5025227;28;105405;-62
2022/08/15 08:32:01;;;;;;;1.57;1.47;;;;;;;24.38;99.14;95551.97;5025541;28;101902;-62
2022/08/15 08:34:39;;;;;;;1.60;1.50;;;;;;;24.02;100.00;95549.63;5025879;28;105474;-62
2022/08/15 08:37:14;;;;;;;1.77;1.50;;;;;;;24.09;100.00;95547.09;5026380;28;102677;-62
2022/08/15 08:39:49;;;;;;;1.73;1.63;;;;;;;24.62;98.22;95557.16;5023887;28;101872;-62
2022/08/15 08:42:26;;;;;;;2.20;1.50;;;;;;;24.56;98.80;95548.44;5026458;28;103088;-62
2022/08/15 08:45:04;;;;;;;2.17;1.60;;;;;;;25.13;98.08;95553.81;5025840;28;102096;-62
2022/08/15 08:58:49;;;;;;;1.73;1.60;;;;;;;24.37;98.21;95542.25;5071040;27;101554;-62
2022/08/15 09:01:18;;;;;;;1.77;1.67;;;;;;;24.33;94.94;95549.53;5048528;27;105667;-62
2022/08/15 09:03:52;;;;;;;2.23;1.70;;;;;;;24.26;99.83;95546.66;5067670;27;101994;-62
2022/08/15 09:06:22;;;;;;;1.73;1.63;;;;;;;24.78;92.38;95546.94;5049121;27;105149;-62
2022/08/15 09:08:54;;;;;;;1.60;1.50;;;;;;;24.48;96.75;95548.69;5048623;27;105574;-62
2022/08/15 09:11:27;;;;;;;3.53;1.80;;;;;;;24.14;98.13;95554.97;5067761;27;101719;-62
2022/08/15 09:13:59;;;;;;;1.57;1.50;;;;;;;24.20;99.07;95556.25;5067711;27;102527;-62
2022/08/15 09:16:35;;;;;;;2.00;1.63;;;;;;;24.16;97.07;95558.09;5066787;27;103235;-62
2022/08/15 09:19:07;;;;;;;2.27;1.60;;;;;;;24.53;98.06;95559.25;5071056;27;101667;-62
2022/08/15 09:21:35;;;;;;;1.73;1.63;;;;;;;24.86;94.04;95556.81;5048045;27;106469;-62
2022/08/15 09:24:03;;;;;;;1.60;1.50;;;;;;;25.00;94.49;95562.50;5048920;27;101980;-62
2022/08/15 09:26:38;;;;;;;2.13;1.60;;;;;;;24.67;98.61;95562.28;5067371;27;102293;-62
2022/08/15 09:29:17;;;;;;;1.80;1.70;;;;;;;24.88;95.45;95557.25;5066644;27;103327;-62
2022/08/15 09:31:55;;;;;;;1.50;1.40;;;;;;;24.65;92.31;95553.69;5067294;27;102034;-62
2022/08/15 09:34:39;;;;;;;1.60;1.50;;;;;;;24.30;84.89;95556.47;5067436;27;102503;-62
2022/08/15 09:37:36;;;;;;;1.70;1.60;;;;;;;24.51;82.46;95559.63;5048186;27;102969;-62
2022/08/15 09:40:30;;;;;;;1.93;1.40;;;;;;;24.18;87.04;95564.75;5048548;27;102014;-62
2022/08/15 09:43:16;;;;;;;1.87;1.70;;;;;;;24.04;92.13;95560.94;5051368;27;105473;-62
2022/08/15 09:46:08;;;;;;;1.70;1.60;;;;;;;24.22;90.60;95564.81;5048433;27;101972;-62
2022/08/15 09:48:56;;;;;;;2.50;1.80;;;;;;;24.41;92.30;95557.47;5048462;27;105102;-62
2022/08/15 09:51:37;;;;;;;1.70;1.60;;;;;;;24.51;83.45;95551.47;5064827;27;105998;-62
2022/08/15 09:54:11;;;;;;;1.83;1.70;;;;;;;24.49;85.66;95563.84;5065431;27;101822;-62
2022/08/15 09:56:40;;;;;;;1.87;1.60;;;;;;;24.40;84.38;95565.97;5065128;27;106468;-62
2022/08/15 09:59:17;;;;;;;3.10;1.80;;;;;;;24.27;84.99;95569.97;5053999;27;105800;-62
2022/08/15 10:01:50;;;;;;;2.07;1.80;;;;;;;24.09;88.76;95571.53;5053335;27;101735;-62
2022/08/15 10:04:22;;;;;;;1.80;1.70;;;;;;;23.85;88.83;95564.38;5053277;27;102860;-62
2022/08/15 10:07:18;;;;;;;1.90;1.70;;;;;;;23.93;93.58;95557.97;5054388;27;106602;-62
2022/08/15 10:10:17;;;;;;;1.73;1.43;;;;;;;24.05;93.50;95562.53;5052856;27;102447;-62
2022/08/15 10:13:26;;;;;;;1.87;1.77;;;;;;;23.73;93.33;95569.13;5052571;27;101871;-62
2022/08/15 10:15:55;;;;;;;1.90;1.80;;;;;;;23.73;91.26;95569.94;5051569;27;101805;-62
2022/08/15 10:18:59;;;;;;;1.67;1.57;;;;;;;23.63;95.56;95565.03;5052824;27;102299;-62
2022/08/15 10:21:35;;;;;;;1.80;1.70;;;;;;;23.54;97.45;95566.38;5050696;27;105529;-62
2022/08/15 10:24:03;;;;;;;1.60;1.50;;;;;;;23.38;99.21;95566.34;5053027;27;101876;-62
2022/08/15 10:26:34;;;;;;;1.90;1.80;;;;;;;23.38;99.38;95562.88;5051288;27;105550;-62
2022/08/15 10:29:09;;;;;;;1.70;1.60;;;;;;;23.45;99.93;95563.84;5052249;27;102719;-62
2022/08/15 10:31:50;;;;;;;1.67;1.57;;;;;;;23.42;100.00;95571.88;5056300;27;101765;-62
2022/08/15 10:34:37;;;;;;;1.77;1.67;;;;;;;23.13;100.00;95567.66;5050651;27;106624;-62
2022/08/15 10:37:17;;;;;;;2.87;1.73;;;;;;;23.20;100.00;95567.06;5052787;27;101703;-62
2022/08/15 10:40:02;;;;;;;1.77;1.67;;;;;;;23.26;100.00;95565.69;5052743;27;102378;-62
2022/08/15 10:42:38;;;;;;;2.73;1.77;;;;;;;23.35;100.00;95564.38;5050531;27;105951;-62
2022/08/15 10:45:17;;;;;;;2.03;1.87;;;;;;;23.20;100.00;95561.63;5052529;27;101771;-62
2022/08/15 10:47:54;;;;;;;2.00;1.80;;;;;;;23.12;100.00;95560.66;5051117;27;105302;-62
2022/08/15 10:50:26;;;;;;;2.57;1.73;;;;;;;23.12;100.00;95554.44;5051700;27;103209;-62
2022/08/15 10:53:07;;;;;;;2.33;2.13;;;;;;;23.16;100.00;95555.31;5050812;27;102138;-62
2022/08/15 10:55:36;;;;;;;2.17;1.80;;;;;;;23.44;100.00;95550.63;5055385;27;102889;-62
2022/08/15 10:58:16;;;;;;;1.93;1.83;;;;;;;23.31;100.00;95540.97;5052077;27;101993;-62
2022/08/15 11:00:51;;;;;;;2.50;1.83;;;;;;;23.31;100.00;95552.63;5050961;27;105061;-62
2022/08/15 11:03:23;;;;;;;1.67;1.57;;;;;;;23.60;100.00;95546.72;5051806;27;102879;-62
2022/08/15 11:05:55;;;;;;;1.67;1.60;;;;;;;23.50;100.00;95554.63;5052253;27;101811;-62
2022/08/15 11:08:24;;;;;;;1.80;1.70;;;;;;;23.93;100.00;95551.78;5051995;27;102408;-62
2022/08/15 11:10:52;;;;;;;2.17;1.93;;;;;;;23.96;100.00;95549.13;5050336;27;102781;-62
2022/08/15 11:13:24;;;;;;;1.83;1.73;;;;;;;24.08;97.31;95550.97;5052004;27;101876;-62
2022/08/15 11:15:55;;;;;;;2.10;1.90;;;;;;;23.97;100.00;95547.22;5050511;27;105302;-62
2022/08/15 11:18:29;;;;;;;1.90;1.80;;;;;;;23.81;98.11;95549.94;5054125;27;101872;-62
2022/08/15 11:21:03;;;;;;;1.93;1.83;;;;;;;23.79;98.49;95540.56;5051977;27;102376;-62
2022/08/15 11:23:36;;;;;;;2.70;2.10;;;;;;;24.21;98.99;95547.75;5051194;27;104403;-62
2022/08/15 11:26:08;;;;;;;1.90;1.70;;;;;;;23.82;96.85;95543.34;5051524;27;101824;-62
2022/08/15 11:28:41;;;;;;;2.60;2.17;;;;;;;24.05;94.12;95532.63;5048606;27;102496;-62
2022/08/15 11:31:16;;;;;;;2.13;1.93;;;;;;;24.07;98.24;95546.63;5049696;27;105824;-62
2022/08/15 11:33:46;;;;;;;2.00;1.80;;;;;;;24.06;98.96;95545.06;5050940;27;101992;-60
2022/08/15 11:36:17;;;;;;;2.30;1.70;;;;;;;24.22;99.29;95548.53;5049722;27;105793;-61
2022/08/15 11:38:48;;;;;;;2.00;1.80;;;;;;;24.31;100.00;95543.66;5053395;27;105575;-62
2022/08/15 11:41:22;;;;;;;2.10;2.00;;;;;;;24.12;100.00;95547.16;5051774;27;102401;-62
2022/08/15 11:43:52;;;;;;;4.17;2.10;;;;;;;23.70;100.00;95546.19;5049458;27;106181;-64
2022/08/15 11:46:21;;;;;;;2.93;2.20;;;;;;;23.91;100.00;95535.03;5051662;27;101832;-61
2022/08/15 11:48:51;;;;;;;2.00;1.70;;;;;;;23.77;100.00;95535.47;5050312;27;104935;-64
2022/08/15 11:51:28;;;;;;;2.57;2.10;;;;;;;23.48;100.00;95535.22;5051236;27;102655;-62
2022/08/15 11:54:08;;;;;;;2.30;2.10;;;;;;;23.87;100.00;95526.00;5051594;27;101706;-61
2022/08/15 11:56:50;;;;;;;2.33;2.03;;;;;;;24.03;100.00;95532.22;5049979;27;104306;-60
2022/08/15 11:59:25;;;;;;;2.70;2.50;;;;;;;23.73;100.00;95525.69;5050816;27;102535;-60
2022/08/15 12:02:29;;;;;;;2.40;2.20;;;;;;;23.86;100.00;95530.66;5055033;27;101705;-60
2022/08/15 12:04:56;;;;;;;2.50;2.07;;;;;;;24.06;100.00;95521.41;5034964;27;105384;-60
2022/08/15 12:07:29;;;;;;;2.30;2.10;;;;;;;24.24;100.00;95517.13;5051369;27;101869;-65
2022/08/15 12:09:58;;;;;;;2.63;1.97;;;;;;;24.46;100.00;95515.63;5049640;27;105327;-62
2022/08/15 12:12:33;;;;;;;1.90;1.80;;;;;;;24.38;100.00;95511.19;5048890;27;105455;-62
2022/08/15 12:15:13;;;;;;;2.17;1.97;;;;;;;24.69;100.00;95508.34;5050544;27;102361;-62
2022/08/15 12:17:48;;;;;;;2.47;2.27;;;;;;;24.80;100.00;95504.66;5048686;27;103906;-63
2022/08/15 12:20:38;;;;;;;2.10;2.00;;;;;;;24.96;100.00;95505.31;5050871;27;102644;-63
2022/08/15 12:23:24;;;;;;;2.50;2.30;;;;;;;24.78;100.00;95506.16;5049572;27;101897;-63
2022/08/15 12:25:54;;;;;;;2.10;2.00;;;;;;;25.09;100.00;95508.66;5052718;27;105504;-63
2022/08/15 12:28:21;;;;;;;2.33;2.20;;;;;;;24.52;100.00;95504.09;5051263;27;102069;-63
2022/08/15 12:30:50;;;;;;;2.67;2.20;;;;;;;25.11;100.00;95495.50;5049698;27;103672;-63